Time;durP1;ratioP1;P1;durP2;ratioP2;P2;SDS_P1;SDS_P2;PMS_P1;PMS_P2;Temp;Humidity;BMP_temperature;BMP_pressure;BME280_temperature;BME280_humidity;BME280_pressure;Samples;Min_cycle;Max_cycle;Signal;HPM_P1;HPM_P2
2022/10/17 00:01:05;;;;;;;28.48;17.05;;;18.10;99.90;;;;;;5067539;28;20055;-70
2022/10/17 00:03:37;;;;;;;24.38;17.08;;;18.10;99.90;;;;;;5084517;28;20357;-74
2022/10/17 00:06:13;;;;;;;30.38;19.52;;;18.10;99.90;;;;;;5067622;28;20513;-72
2022/10/17 00:08:42;;;;;;;25.77;18.25;;;18.10;99.90;;;;;;5084043;28;20042;-71
2022/10/17 00:11:19;;;;;;;27.88;19.00;;;18.10;99.90;;;;;;5083603;28;20144;-69
2022/10/17 00:13:54;;;;;;;27.08;17.67;;;18.10;99.90;;;;;;5084741;28;20047;-70
2022/10/17 00:16:24;;;;;;;30.25;20.13;;;18.00;99.90;;;;;;5084427;28;20043;-69
2022/10/17 00:18:52;;;;;;;28.65;18.48;;;18.00;99.90;;;;;;5084023;28;20045;-73
2022/10/17 00:21:21;;;;;;;31.85;19.02;;;18.00;99.90;;;;;;5067777;28;20055;-73
2022/10/17 00:23:48;;;;;;;30.65;18.98;;;18.00;99.90;;;;;;5083972;28;20055;-71
2022/10/17 00:26:17;;;;;;;31.23;19.67;;;18.00;99.90;;;;;;5084300;28;20567;-70
2022/10/17 00:28:49;;;;;;;26.60;19.25;;;18.00;99.90;;;;;;5084470;28;20197;-72
2022/10/17 00:31:18;;;;;;;36.55;20.33;;;18.00;99.90;;;;;;5083119;28;20071;-74
2022/10/17 00:33:46;;;;;;;32.92;21.10;;;18.00;99.90;;;;;;5084046;28;20050;-72
2022/10/17 00:36:23;;;;;;;30.63;19.63;;;17.90;99.90;;;;;;5068134;28;20051;-70
2022/10/17 00:38:58;;;;;;;30.50;19.67;;;17.90;99.90;;;;;;5067174;28;20055;-71
2022/10/17 00:41:29;;;;;;;33.28;19.92;;;17.90;99.90;;;;;;5085441;28;20047;-71
2022/10/17 00:44:00;;;;;;;29.38;20.25;;;17.90;99.90;;;;;;5084197;28;20155;-72
2022/10/17 00:46:32;;;;;;;30.65;19.92;;;17.90;99.90;;;;;;5084690;28;20051;-70
2022/10/17 00:49:06;;;;;;;31.25;20.10;;;17.90;99.90;;;;;;5086312;28;20498;-70
2022/10/17 00:51:44;;;;;;;36.30;20.50;;;17.90;99.90;;;;;;5086322;28;20134;-69
2022/10/17 00:54:14;;;;;;;30.58;20.67;;;17.90;99.90;;;;;;5067855;28;20074;-69
2022/10/17 00:56:44;;;;;;;30.10;20.40;;;17.90;99.90;;;;;;5067822;28;20052;-70
2022/10/17 00:59:13;;;;;;;33.05;18.92;;;17.90;99.90;;;;;;5083836;28;20062;-70
2022/10/17 01:01:43;;;;;;;30.02;20.63;;;17.90;99.90;;;;;;5067015;28;20130;-70
2022/10/17 01:04:12;;;;;;;31.92;19.00;;;17.80;99.90;;;;;;5086306;28;20154;-72
2022/10/17 01:06:39;;;;;;;38.72;21.75;;;17.90;99.90;;;;;;5088292;28;20036;-71
2022/10/17 01:09:07;;;;;;;33.50;22.13;;;17.80;99.90;;;;;;5089254;28;20051;-72
2022/10/17 01:11:48;;;;;;;40.40;22.48;;;17.80;99.90;;;;;;5070766;28;20048;-71
2022/10/17 01:14:25;;;;;;;30.77;21.15;;;17.80;99.90;;;;;;5088072;28;20075;-72
2022/10/17 01:17:40;;;;;;;30.60;20.27;;;17.80;99.90;;;;;;5054287;28;20079;-70
2022/10/17 01:20:38;;;;;;;36.97;23.23;;;17.80;99.90;;;;;;5018390;28;20059;-71
2022/10/17 01:23:35;;;;;;;33.08;23.67;;;17.80;99.90;;;;;;5087667;28;20048;-70
2022/10/17 01:26:24;;;;;;;37.75;21.77;;;17.80;99.90;;;;;;5087846;28;20149;-69
2022/10/17 01:29:26;;;;;;;35.40;21.90;;;17.80;99.90;;;;;;5087335;28;20044;-69
2022/10/17 01:31:59;;;;;;;34.28;21.05;;;17.80;99.90;;;;;;5026132;28;20496;-69
2022/10/17 01:35:17;;;;;;;34.83;24.00;;;17.70;99.90;;;;;;5057969;28;20036;-69
2022/10/17 01:38:14;;;;;;;36.00;23.40;;;17.70;99.90;;;;;;5062995;28;20075;-69
2022/10/17 01:40:45;;;;;;;34.15;21.60;;;17.70;99.90;;;;;;5087524;28;20047;-70
2022/10/17 01:43:37;;;;;;;34.80;20.55;;;17.70;99.90;;;;;;5070515;28;20097;-72
2022/10/17 01:46:45;;;;;;;31.52;19.95;;;17.70;99.90;;;;;;5087149;28;20128;-70
2022/10/17 01:49:16;;;;;;;34.22;22.27;;;17.70;99.90;;;;;;5087228;28;20036;-73
2022/10/17 01:51:54;;;;;;;33.55;20.92;;;17.70;99.90;;;;;;5086878;28;20060;-71
2022/10/17 01:54:43;;;;;;;41.25;22.05;;;17.70;99.90;;;;;;5070394;28;20485;-72
2022/10/17 01:57:30;;;;;;;32.13;21.88;;;17.60;99.90;;;;;;5086844;28;20040;-69
2022/10/17 01:59:59;;;;;;;30.73;19.27;;;17.60;99.90;;;;;;5086506;28;20051;-69
2022/10/17 02:02:28;;;;;;;40.33;22.83;;;17.60;99.90;;;;;;5086602;28;20060;-72
2022/10/17 02:04:56;;;;;;;32.22;19.42;;;17.60;99.90;;;;;;5087366;28;20131;-70
2022/10/17 02:07:25;;;;;;;36.88;19.92;;;17.50;99.90;;;;;;5069866;28;20075;-71
2022/10/17 02:09:53;;;;;;;31.98;20.42;;;17.50;99.90;;;;;;5086552;28;20040;-72
2022/10/17 02:12:23;;;;;;;26.95;19.02;;;17.50;99.90;;;;;;5070143;28;20052;-69
2022/10/17 02:15:09;;;;;;;30.83;20.20;;;17.50;99.90;;;;;;5086251;28;20044;-69
2022/10/17 02:18:05;;;;;;;30.17;19.52;;;17.40;99.90;;;;;;5069422;28;20040;-71
2022/10/17 02:20:51;;;;;;;27.05;17.60;;;17.40;99.90;;;;;;5086162;28;20474;-69
2022/10/17 02:23:37;;;;;;;27.90;17.38;;;17.40;99.90;;;;;;5085622;28;20397;-70
2022/10/17 02:26:18;;;;;;;30.77;18.98;;;17.40;99.90;;;;;;5085816;28;20055;-75
2022/10/17 02:28:57;;;;;;;27.42;17.60;;;17.30;99.90;;;;;;5053266;28;20059;-70
2022/10/17 02:31:30;;;;;;;28.83;18.77;;;17.30;99.90;;;;;;5052601;28;20154;-73
2022/10/17 02:34:03;;;;;;;26.52;18.15;;;17.30;99.90;;;;;;5086761;28;20052;-71
2022/10/17 02:36:39;;;;;;;27.48;19.80;;;17.30;99.90;;;;;;5069092;28;20185;-75
2022/10/17 02:39:08;;;;;;;24.42;17.98;;;17.30;99.90;;;;;;5085809;28;20147;-70
2022/10/17 02:41:40;;;;;;;28.02;19.00;;;17.30;99.90;;;;;;5085687;28;20059;-72
2022/10/17 02:44:10;;;;;;;30.80;19.70;;;17.30;99.90;;;;;;5086570;28;20398;-71
2022/10/17 02:46:40;;;;;;;30.25;17.67;;;17.30;99.90;;;;;;5085533;28;20185;-73
2022/10/17 02:49:19;;;;;;;29.58;17.90;;;17.20;99.90;;;;;;5086235;28;20048;-70
2022/10/17 02:52:01;;;;;;;29.45;19.27;;;17.20;99.90;;;;;;5086061;28;20386;-73
2022/10/17 02:54:39;;;;;;;32.13;19.77;;;17.20;99.90;;;;;;5085742;28;20122;-74
2022/10/17 02:57:33;;;;;;;29.40;20.58;;;17.30;99.90;;;;;;5086356;28;20494;-69
2022/10/17 03:00:07;;;;;;;28.58;17.98;;;17.30;99.90;;;;;;5086300;28;20043;-72
2022/10/17 03:02:44;;;;;;;30.10;19.33;;;17.20;99.90;;;;;;5069000;28;20541;-71
2022/10/17 03:05:14;;;;;;;28.90;19.42;;;17.20;99.90;;;;;;5085382;28;20048;-73
2022/10/17 03:07:43;;;;;;;29.58;19.65;;;17.20;99.90;;;;;;5069285;28;20338;-71
2022/10/17 03:10:12;;;;;;;29.75;19.88;;;17.20;99.90;;;;;;5084986;28;20052;-70
2022/10/17 03:12:40;;;;;;;30.70;20.70;;;17.20;99.90;;;;;;5084919;28;20417;-72
2022/10/17 03:15:09;;;;;;;31.05;21.55;;;17.20;99.90;;;;;;5068559;28;20044;-70
2022/10/17 03:17:37;;;;;;;31.98;18.38;;;17.20;99.90;;;;;;5068759;28;20148;-69
2022/10/17 03:20:07;;;;;;;32.38;19.73;;;17.20;99.90;;;;;;5068458;28;20056;-70
2022/10/17 03:22:35;;;;;;;31.13;19.02;;;17.20;99.90;;;;;;5084777;28;20387;-70
2022/10/17 03:25:05;;;;;;;30.85;20.70;;;17.20;99.90;;;;;;5085750;28;20101;-71
2022/10/17 03:27:35;;;;;;;28.10;20.98;;;17.20;99.90;;;;;;5067039;28;20082;-69
2022/10/17 03:30:03;;;;;;;31.05;21.30;;;17.20;99.90;;;;;;5068284;28;20044;-71
2022/10/17 03:32:34;;;;;;;42.67;24.67;;;17.20;99.90;;;;;;5085158;28;20087;-70
2022/10/17 03:35:03;;;;;;;36.28;25.20;;;17.20;99.90;;;;;;5085481;28;20044;-77
2022/10/17 03:37:31;;;;;;;37.05;22.42;;;17.20;99.90;;;;;;5085281;28;20157;-72
2022/10/17 03:39:59;;;;;;;37.33;23.33;;;17.20;99.90;;;;;;5085318;28;20119;-70
2022/10/17 03:42:30;;;;;;;39.05;24.95;;;17.30;99.90;;;;;;5068276;28;20802;-69
2022/10/17 03:44:58;;;;;;;41.53;24.70;;;17.30;99.90;;;;;;5068319;28;20081;-70
2022/10/17 03:47:28;;;;;;;39.47;24.42;;;17.30;99.90;;;;;;5084274;28;20743;-70
2022/10/17 03:49:56;;;;;;;41.28;25.65;;;17.30;99.90;;;;;;5084779;28;20766;-72
2022/10/17 03:52:24;;;;;;;40.85;25.00;;;17.30;99.90;;;;;;5085508;28;20043;-69
2022/10/17 03:54:51;;;;;;;39.60;26.30;;;17.40;99.90;;;;;;5084916;28;20047;-71
2022/10/17 03:57:19;;;;;;;40.13;25.70;;;17.40;99.90;;;;;;5084544;28;20182;-70
2022/10/17 03:59:50;;;;;;;38.72;24.48;;;17.40;99.90;;;;;;5085051;28;20589;-73
2022/10/17 04:02:19;;;;;;;37.45;23.15;;;17.40;99.90;;;;;;5069007;28;20073;-71
2022/10/17 04:04:49;;;;;;;35.88;25.15;;;17.50;99.90;;;;;;5067852;28;20464;-72
2022/10/17 04:07:16;;;;;;;42.53;26.67;;;17.40;99.90;;;;;;5068460;28;20565;-78
2022/10/17 04:09:47;;;;;;;36.97;24.02;;;17.50;99.90;;;;;;5068929;28;20093;-70
2022/10/17 04:12:19;;;;;;;39.75;26.50;;;17.50;99.90;;;;;;5067497;28;20540;-71
2022/10/17 04:14:47;;;;;;;39.72;24.67;;;17.50;99.90;;;;;;5052052;28;20060;-70
2022/10/17 04:17:16;;;;;;;36.30;24.88;;;17.40;99.90;;;;;;5068083;28;20498;-70
2022/10/17 04:19:44;;;;;;;39.40;24.42;;;17.40;99.90;;;;;;5068645;28;20450;-72
2022/10/17 04:22:15;;;;;;;32.53;20.23;;;17.30;99.90;;;;;;5068475;28;20051;-70
2022/10/17 04:24:43;;;;;;;30.10;19.20;;;17.20;99.90;;;;;;5084467;28;20047;-70
2022/10/17 04:27:27;;;;;;;31.63;19.67;;;17.20;99.90;;;;;;5067280;28;20044;-70
2022/10/17 04:29:54;;;;;;;29.80;18.83;;;17.10;99.90;;;;;;5084498;28;20455;-69
2022/10/17 04:32:24;;;;;;;28.42;21.00;;;17.00;99.90;;;;;;5085406;28;20109;-69
2022/10/17 04:35:18;;;;;;;27.00;18.48;;;17.00;99.90;;;;;;5080432;28;20101;-71
2022/10/17 04:37:51;;;;;;;29.80;21.00;;;16.90;99.90;;;;;;5085508;28;20579;-72
2022/10/17 04:40:20;;;;;;;34.05;19.48;;;16.90;99.90;;;;;;5088825;28;20044;-69
2022/10/17 04:42:51;;;;;;;35.15;20.33;;;16.90;99.90;;;;;;5071719;28;20052;-71
2022/10/17 04:45:22;;;;;;;33.58;20.42;;;16.90;99.90;;;;;;5072217;28;20044;-70
2022/10/17 04:47:56;;;;;;;36.88;21.88;;;16.80;99.90;;;;;;5055541;28;20048;-71
2022/10/17 04:50:24;;;;;;;32.78;20.85;;;16.80;99.90;;;;;;5088535;28;20051;-70
2022/10/17 04:53:10;;;;;;;34.70;19.88;;;16.80;99.90;;;;;;5089207;28;20397;-73
2022/10/17 04:55:38;;;;;;;32.28;20.25;;;16.80;99.90;;;;;;5070799;28;20062;-70
2022/10/17 04:58:06;;;;;;;27.05;18.48;;;16.70;99.90;;;;;;5088010;28;20036;-72
2022/10/17 05:00:35;;;;;;;34.58;21.17;;;16.70;99.90;;;;;;5070847;28;20595;-72
2022/10/17 05:03:18;;;;;;;32.42;19.00;;;16.70;99.90;;;;;;5070236;28;20067;-74
2022/10/17 05:05:46;;;;;;;32.30;18.55;;;16.70;99.90;;;;;;5088080;28;20177;-71
2022/10/17 05:08:14;;;;;;;28.08;18.80;;;16.60;99.90;;;;;;5088096;28;20154;-70
2022/10/17 05:10:44;;;;;;;31.55;19.42;;;16.60;99.90;;;;;;5054563;28;20048;-70
2022/10/17 05:13:13;;;;;;;35.25;18.13;;;16.60;99.90;;;;;;5088106;28;20086;-74
2022/10/17 05:15:41;;;;;;;30.98;19.75;;;16.60;99.90;;;;;;5054598;28;20056;-73
2022/10/17 05:18:11;;;;;;;31.35;17.40;;;16.60;99.90;;;;;;5069530;28;20051;-70
2022/10/17 05:20:40;;;;;;;31.10;19.90;;;16.60;99.90;;;;;;5087643;28;20079;-69
2022/10/17 05:23:10;;;;;;;29.52;18.05;;;16.70;99.90;;;;;;5070868;28;20078;-70
2022/10/17 05:25:42;;;;;;;32.15;20.25;;;16.70;99.90;;;;;;5071014;28;20398;-71
2022/10/17 05:28:11;;;;;;;35.33;18.25;;;16.80;99.90;;;;;;5089049;28;20055;-70
2022/10/17 05:30:40;;;;;;;26.35;19.15;;;16.90;99.90;;;;;;5070535;28;20058;-73
2022/10/17 05:33:09;;;;;;;34.78;21.25;;;17.00;99.90;;;;;;5087210;28;20075;-69
2022/10/17 05:35:37;;;;;;;31.45;20.30;;;17.10;99.90;;;;;;5087373;28;20061;-69
2022/10/17 05:38:05;;;;;;;33.05;20.00;;;17.20;99.90;;;;;;5070559;28;20172;-69
2022/10/17 05:40:35;;;;;;;32.38;23.23;;;17.40;99.90;;;;;;5070086;28;20446;-71
2022/10/17 05:43:02;;;;;;;32.63;20.98;;;17.50;99.90;;;;;;5088528;28;20151;-72
2022/10/17 05:45:30;;;;;;;31.58;21.98;;;17.70;99.90;;;;;;5069890;28;20052;-70
2022/10/17 05:47:59;;;;;;;29.77;20.58;;;17.80;99.90;;;;;;5086855;28;20127;-71
2022/10/17 05:50:28;;;;;;;36.28;23.55;;;18.00;99.90;;;;;;5085621;28;20048;-71
2022/10/17 05:53:03;;;;;;;37.33;23.05;;;18.10;99.90;;;;;;5086881;28;20444;-73
2022/10/17 05:55:37;;;;;;;38.67;23.58;;;18.30;99.90;;;;;;5053688;28;20051;-71
2022/10/17 05:58:05;;;;;;;36.78;22.70;;;18.40;99.90;;;;;;5088071;28;20401;-70
2022/10/17 06:00:38;;;;;;;42.42;27.23;;;18.60;99.90;;;;;;5054632;28;21009;-73
2022/10/17 06:03:06;;;;;;;38.97;25.23;;;18.80;99.90;;;;;;5070900;28;20040;-71
2022/10/17 06:05:34;;;;;;;37.88;24.15;;;19.00;99.90;;;;;;5085975;28;20083;-73
2022/10/17 06:08:02;;;;;;;40.20;24.10;;;19.30;99.90;;;;;;5086493;28;20046;-69
2022/10/17 06:10:33;;;;;;;39.70;26.13;;;19.50;99.90;;;;;;5053750;28;20044;-71
2022/10/17 06:13:01;;;;;;;36.00;22.98;;;19.80;99.90;;;;;;5068072;28;20635;-72
2022/10/17 06:15:29;;;;;;;36.25;23.90;;;20.00;99.90;;;;;;5069456;28;20158;-70
2022/10/17 06:18:01;;;;;;;40.15;23.80;;;20.30;99.90;;;;;;5086746;28;20545;-75
2022/10/17 06:20:29;;;;;;;36.72;24.20;;;20.70;99.90;;;;;;5085394;28;20139;-72
2022/10/17 06:22:57;;;;;;;37.05;22.75;;;21.00;99.90;;;;;;5068738;28;20418;-72
2022/10/17 06:25:41;;;;;;;36.63;26.00;;;21.40;99.90;;;;;;5071100;28;20063;-70
2022/10/17 06:28:10;;;;;;;33.75;22.65;;;21.70;99.90;;;;;;5086478;28;20044;-70
2022/10/17 06:30:40;;;;;;;35.05;22.52;;;22.10;99.90;;;;;;5086761;28;20078;-72
2022/10/17 06:33:07;;;;;;;34.53;23.58;;;22.50;99.90;;;;;;5086262;28;20044;-69
2022/10/17 06:35:35;;;;;;;33.88;21.10;;;22.80;99.90;;;;;;5051301;28;20055;-73
2022/10/17 06:38:03;;;;;;;34.00;22.52;;;23.00;99.90;;;;;;5085236;28;20516;-71
2022/10/17 06:40:32;;;;;;;31.92;21.35;;;23.00;99.90;;;;;;5085210;28;20040;-72
2022/10/17 06:43:00;;;;;;;29.75;18.13;;;23.00;99.90;;;;;;5068576;28;20062;-76
2022/10/17 06:45:51;;;;;;;33.22;18.63;;;23.00;99.90;;;;;;5085580;28;20548;-73
2022/10/17 06:48:51;;;;;;;31.73;20.35;;;22.90;99.90;;;;;;5052834;28;20496;-71
2022/10/17 06:51:37;;;;;;;30.95;20.50;;;22.90;99.90;;;;;;5087523;28;20121;-73
2022/10/17 06:54:08;;;;;;;27.70;19.98;;;23.00;99.90;;;;;;5068222;28;20063;-78
2022/10/17 06:56:55;;;;;;;31.50;20.23;;;23.00;99.90;;;;;;5070646;28;20494;-72
2022/10/17 06:59:41;;;;;;;28.38;20.52;;;23.10;99.90;;;;;;5085225;28;20040;-71
2022/10/17 07:02:28;;;;;;;30.58;19.23;;;23.30;99.90;;;;;;5068240;28;20075;-70
2022/10/17 07:04:58;;;;;;;35.47;19.58;;;23.30;99.90;;;;;;5084998;28;20513;-75
2022/10/17 07:07:31;;;;;;;30.50;19.60;;;23.30;99.90;;;;;;5068284;28;20477;-70
2022/10/17 07:09:59;;;;;;;31.67;20.35;;;23.30;99.90;;;;;;5085846;28;20636;-71
2022/10/17 07:12:27;;;;;;;27.92;18.45;;;23.40;99.90;;;;;;5085060;28;20044;-71
2022/10/17 07:14:54;;;;;;;25.40;18.30;;;23.30;99.90;;;;;;5085876;28;20051;-69
2022/10/17 07:17:23;;;;;;;27.60;19.92;;;23.40;99.90;;;;;;5067384;28;20082;-68
2022/10/17 07:19:51;;;;;;;25.80;18.55;;;23.50;99.90;;;;;;5068198;28;20508;-70
2022/10/17 07:22:19;;;;;;;27.80;19.02;;;23.50;99.90;;;;;;5085005;28;20055;-73
2022/10/17 07:24:49;;;;;;;26.88;18.52;;;23.60;99.90;;;;;;5051392;28;20059;-70
2022/10/17 07:27:24;;;;;;;26.20;18.40;;;23.70;99.90;;;;;;5067069;28;20047;-71
2022/10/17 07:29:52;;;;;;;28.20;18.55;;;23.70;99.90;;;;;;5068395;28;20565;-75
2022/10/17 07:32:40;;;;;;;31.20;18.73;;;23.70;99.90;;;;;;5067182;28;20056;-72
2022/10/17 07:35:10;;;;;;;23.00;16.35;;;23.70;99.90;;;;;;5084877;28;20047;-74
2022/10/17 07:37:39;;;;;;;24.45;17.13;;;23.80;99.90;;;;;;5084971;28;20520;-75
2022/10/17 07:40:08;;;;;;;22.85;16.08;;;23.90;99.90;;;;;;5067732;28;20055;-70
2022/10/17 07:42:39;;;;;;;23.90;16.55;;;24.00;99.90;;;;;;5068987;28;20393;-70
2022/10/17 07:45:10;;;;;;;23.10;17.27;;;24.10;99.90;;;;;;5084198;28;20044;-69
2022/10/17 07:47:38;;;;;;;22.02;15.52;;;24.20;99.90;;;;;;5084148;28;20036;-72
2022/10/17 07:50:08;;;;;;;25.33;17.70;;;24.30;99.90;;;;;;5084468;28;20077;-69
2022/10/17 07:52:35;;;;;;;24.83;16.02;;;24.30;99.90;;;;;;5084241;28;20070;-71
2022/10/17 07:55:04;;;;;;;24.58;17.20;;;24.20;99.90;;;;;;5084358;28;20135;-70
2022/10/17 07:57:32;;;;;;;25.02;16.15;;;24.10;99.90;;;;;;5084884;28;20547;-69
2022/10/17 08:00:00;;;;;;;19.52;14.85;;;23.90;99.90;;;;;;5085800;28;20434;-70
2022/10/17 08:02:27;;;;;;;24.58;17.60;;;23.70;99.90;;;;;;5084523;28;20105;-69
2022/10/17 08:04:58;;;;;;;24.20;15.55;;;23.50;99.90;;;;;;5084777;28;20429;-70
2022/10/17 08:07:25;;;;;;;22.77;14.85;;;23.20;99.90;;;;;;5085753;28;20363;-69
2022/10/17 08:09:55;;;;;;;22.65;15.93;;;23.10;99.90;;;;;;5084313;28;20060;-70
2022/10/17 08:12:24;;;;;;;22.55;14.32;;;23.00;99.90;;;;;;5084036;28;20055;-76
2022/10/17 08:14:52;;;;;;;20.92;13.77;;;22.90;99.90;;;;;;5070996;28;20421;-69
2022/10/17 08:17:20;;;;;;;21.63;15.93;;;22.80;99.90;;;;;;5071378;28;20468;-71
2022/10/17 08:19:48;;;;;;;26.20;15.18;;;22.70;99.90;;;;;;5088258;28;20056;-71
2022/10/17 08:22:15;;;;;;;21.30;14.52;;;22.60;99.90;;;;;;5089310;28;20058;-69
2022/10/17 08:24:45;;;;;;;21.13;14.63;;;22.60;99.90;;;;;;5055355;28;20052;-71
2022/10/17 08:27:12;;;;;;;20.60;13.75;;;22.60;99.90;;;;;;5087617;28;20060;-72
2022/10/17 08:29:40;;;;;;;22.80;15.20;;;22.60;99.90;;;;;;5087902;28;20571;-71
2022/10/17 08:32:08;;;;;;;22.60;15.20;;;22.50;99.90;;;;;;5088019;28;20052;-69
2022/10/17 08:34:36;;;;;;;24.05;15.07;;;22.70;99.90;;;;;;5088408;28;20579;-72
2022/10/17 08:37:04;;;;;;;19.52;13.20;;;22.80;99.90;;;;;;5089015;28;20097;-69
2022/10/17 08:39:32;;;;;;;19.98;12.68;;;22.90;99.90;;;;;;5087758;28;20127;-69
2022/10/17 08:42:24;;;;;;;20.45;13.05;;;23.20;99.90;;;;;;5088531;28;20435;-73
2022/10/17 08:45:09;;;;;;;21.00;13.70;;;23.30;99.90;;;;;;5087984;28;20044;-73
2022/10/17 08:47:41;;;;;;;20.35;15.18;;;23.20;99.90;;;;;;5070564;28;20056;-70
2022/10/17 08:50:27;;;;;;;20.58;14.32;;;23.10;99.90;;;;;;5087795;28;20436;-69
2022/10/17 08:53:09;;;;;;;20.17;12.98;;;23.10;99.90;;;;;;5070728;28;20047;-69
2022/10/17 08:55:40;;;;;;;18.10;12.25;;;22.90;99.90;;;;;;5087813;28;20131;-69
2022/10/17 08:58:13;;;;;;;17.27;12.48;;;23.00;99.90;;;;;;5054457;28;20060;-69
2022/10/17 09:00:46;;;;;;;18.05;12.55;;;23.10;99.90;;;;;;5089898;28;20047;-72
2022/10/17 09:03:28;;;;;;;17.27;12.60;;;23.10;99.90;;;;;;5071154;28;20055;-70
2022/10/17 09:06:17;;;;;;;17.80;11.85;;;23.00;99.90;;;;;;5089203;28;20078;-71
2022/10/17 09:09:08;;;;;;;22.98;13.40;;;23.20;99.90;;;;;;5070428;28;20040;-73
2022/10/17 09:11:47;;;;;;;16.58;11.52;;;23.30;99.90;;;;;;5078043;28;20101;-74
2022/10/17 09:14:43;;;;;;;19.50;12.50;;;23.30;99.90;;;;;;5071539;28;20560;-72
2022/10/17 09:17:16;;;;;;;18.38;12.45;;;23.20;99.90;;;;;;5087536;28;20123;-69
2022/10/17 09:19:56;;;;;;;17.90;13.07;;;23.30;99.90;;;;;;5070616;28;20044;-70
2022/10/17 09:22:29;;;;;;;17.50;11.68;;;23.50;99.90;;;;;;5088255;28;20512;-70
2022/10/17 09:25:02;;;;;;;22.02;12.88;;;23.40;99.90;;;;;;5089120;28;20112;-72
2022/10/17 09:27:40;;;;;;;18.25;12.82;;;23.30;99.90;;;;;;5069981;28;20532;-69
2022/10/17 09:30:36;;;;;;;19.15;12.32;;;23.40;99.90;;;;;;5086923;28;20040;-71
2022/10/17 09:33:16;;;;;;;17.85;12.95;;;23.20;99.90;;;;;;5087201;28;20109;-70
2022/10/17 09:35:49;;;;;;;14.77;11.02;;;23.00;99.90;;;;;;5087622;28;20497;-69
2022/10/17 09:38:21;;;;;;;16.80;11.75;;;22.90;99.90;;;;;;5071151;28;20458;-71
2022/10/17 09:40:59;;;;;;;14.85;10.50;;;23.00;99.90;;;;;;5070995;28;20047;-71
2022/10/17 09:43:27;;;;;;;17.17;11.82;;;23.10;99.90;;;;;;5088337;28;20062;-71
2022/10/17 09:46:16;;;;;;;15.75;12.35;;;23.30;99.90;;;;;;5086780;28;20131;-71
2022/10/17 09:48:56;;;;;;;16.73;11.55;;;23.40;99.90;;;;;;5087437;28;20044;-70
2022/10/17 09:51:24;;;;;;;18.70;13.32;;;23.40;99.90;;;;;;5086488;28;20032;-69
2022/10/17 09:54:04;;;;;;;18.17;12.75;;;23.60;99.90;;;;;;5069519;28;20158;-70
2022/10/17 09:56:57;;;;;;;15.57;11.57;;;23.70;99.90;;;;;;5088871;28;20453;-69
2022/10/17 09:59:55;;;;;;;17.55;11.90;;;23.80;99.90;;;;;;5087087;28;20063;-70
2022/10/17 10:02:26;;;;;;;17.15;10.85;;;23.70;99.90;;;;;;5069253;28;20451;-69
2022/10/17 10:05:05;;;;;;;18.85;13.25;;;23.50;99.90;;;;;;5070666;28;20079;-74
2022/10/17 10:07:38;;;;;;;17.35;12.20;;;23.50;99.90;;;;;;5088472;28;20036;-68
2022/10/17 10:10:23;;;;;;;21.90;11.45;;;23.50;99.90;;;;;;5088441;28;20044;-76
2022/10/17 10:13:15;;;;;;;16.73;11.73;;;23.70;99.90;;;;;;5085761;28;20091;-69
2022/10/17 10:15:46;;;;;;;16.55;11.77;;;23.80;99.90;;;;;;5087834;28;20044;-69
2022/10/17 10:18:26;;;;;;;15.80;11.13;;;23.80;99.90;;;;;;5069592;28;20088;-71
2022/10/17 10:21:13;;;;;;;16.15;11.82;;;23.80;99.90;;;;;;5085829;28;20055;-69
2022/10/17 10:23:43;;;;;;;17.30;11.88;;;23.80;99.90;;;;;;5070031;28;20187;-69
2022/10/17 10:26:24;;;;;;;20.75;12.55;;;23.70;99.90;;;;;;5070180;28;20040;-69
2022/10/17 10:29:01;;;;;;;18.77;12.35;;;23.50;99.90;;;;;;5086871;28;20181;-70
2022/10/17 10:31:35;;;;;;;17.10;13.40;;;23.50;99.90;;;;;;5085644;28;20060;-69
2022/10/17 10:34:19;;;;;;;16.77;11.25;;;23.50;99.90;;;;;;5085805;28;20143;-70
2022/10/17 10:36:54;;;;;;;16.17;11.30;;;23.60;99.90;;;;;;5086622;28;20060;-70
2022/10/17 10:39:27;;;;;;;19.42;11.38;;;23.80;99.90;;;;;;5086211;28;20059;-72
2022/10/17 10:41:55;;;;;;;19.08;12.35;;;23.60;99.90;;;;;;5085621;28;20846;-69
2022/10/17 10:44:26;;;;;;;17.83;12.15;;;23.50;99.90;;;;;;5085423;28;20043;-72
2022/10/17 10:47:27;;;;;;;16.05;11.05;;;23.60;99.90;;;;;;5086125;28;20482;-73
2022/10/17 10:50:35;;;;;;;15.43;10.40;;;23.60;99.90;;;;;;5068888;28;20056;-68
2022/10/17 10:53:12;;;;;;;16.08;11.13;;;23.40;99.90;;;;;;5085907;28;20083;-71
2022/10/17 10:55:51;;;;;;;18.08;10.95;;;23.40;99.90;;;;;;5068646;28;20127;-69
2022/10/17 10:58:25;;;;;;;17.23;10.80;;;23.50;99.90;;;;;;5086280;28;20469;-69
2022/10/17 11:00:59;;;;;;;17.15;10.88;;;23.50;99.90;;;;;;5085765;28;20032;-69
2022/10/17 11:03:53;;;;;;;17.23;12.05;;;23.40;99.90;;;;;;5085265;28;20079;-72
2022/10/17 11:06:36;;;;;;;19.23;13.00;;;23.40;99.90;;;;;;5074179;28;20085;-69
2022/10/17 11:09:18;;;;;;;13.30;9.80;;;23.20;99.90;;;;;;5068335;28;20054;-73
2022/10/17 11:11:55;;;;;;;15.10;9.38;;;22.90;99.90;;;;;;5068453;28;20056;-70
2022/10/17 11:14:41;;;;;;;17.63;10.63;;;23.00;99.90;;;;;;5085500;28;20048;-69
2022/10/17 11:17:18;;;;;;;17.38;10.27;;;22.90;99.90;;;;;;5068615;28;20087;-70
2022/10/17 11:19:50;;;;;;;13.30;10.25;;;23.00;99.90;;;;;;5086891;28;20286;-69
2022/10/17 11:22:30;;;;;;;14.60;10.30;;;23.00;99.90;;;;;;5084054;28;20047;-70
2022/10/17 11:25:00;;;;;;;16.40;11.10;;;23.10;99.90;;;;;;5067907;28;20052;-70
2022/10/17 11:27:29;;;;;;;16.50;10.65;;;23.20;99.90;;;;;;5084532;28;20748;-73
2022/10/17 11:29:57;;;;;;;16.73;10.73;;;23.20;99.90;;;;;;5086269;28;20440;-70
2022/10/17 11:32:38;;;;;;;14.27;10.48;;;23.10;99.90;;;;;;5085057;28;20768;-69
2022/10/17 11:35:28;;;;;;;15.05;9.20;;;23.10;99.90;;;;;;5068405;28;20089;-69
2022/10/17 11:38:24;;;;;;;13.80;9.82;;;23.00;99.90;;;;;;5084286;28;20036;-69
2022/10/17 11:40:57;;;;;;;11.87;7.53;;;22.90;99.90;;;;;;5068378;28;20052;-69
2022/10/17 11:43:25;;;;;;;12.25;8.25;;;23.00;99.90;;;;;;5084430;28;20143;-68
2022/10/17 11:46:01;;;;;;;13.90;8.63;;;23.00;99.90;;;;;;5084408;28;20496;-70
2022/10/17 11:48:36;;;;;;;12.30;7.55;;;23.10;99.90;;;;;;5067343;28;20078;-72
2022/10/17 11:51:10;;;;;;;10.97;7.37;;;23.30;99.90;;;;;;5067273;28;20089;-71
2022/10/17 11:54:30;;;;;;;9.57;6.00;;;23.30;99.90;;;;;;5070192;28;20334;-70
2022/10/17 11:57:24;;;;;;;7.80;6.03;;;23.20;99.90;;;;;;5084178;28;20429;-69
2022/10/17 12:00:10;;;;;;;10.75;6.00;;;23.10;99.90;;;;;;5067755;28;20703;-72
2022/10/17 12:03:04;;;;;;;10.13;5.53;;;23.20;99.90;;;;;;5084263;28;20523;-68
2022/10/17 12:05:47;;;;;;;9.40;5.97;;;23.20;99.90;;;;;;5083819;28;20036;-69
2022/10/17 12:08:46;;;;;;;7.93;4.40;;;23.00;99.90;;;;;;5067928;28;20118;-69
2022/10/17 12:11:22;;;;;;;5.72;3.58;;;23.00;99.90;;;;;;5085875;28;20072;-70
2022/10/17 12:13:53;;;;;;;5.05;3.80;;;22.90;99.90;;;;;;5050907;28;20147;-70
2022/10/17 12:16:22;;;;;;;5.60;3.63;;;22.90;99.90;;;;;;5084235;28;20093;-69
2022/10/17 12:19:05;;;;;;;5.30;3.60;;;22.90;99.90;;;;;;5050070;28;20051;-73
2022/10/17 12:22:01;;;;;;;11.98;5.00;;;22.90;99.90;;;;;;5051198;28;20052;-69
2022/10/17 12:24:40;;;;;;;6.82;4.47;;;22.90;99.90;;;;;;5084892;28;20473;-69
2022/10/17 12:27:44;;;;;;;7.72;4.50;;;23.00;99.90;;;;;;5086442;28;20040;-70
2022/10/17 12:30:26;;;;;;;9.10;5.88;;;22.90;99.90;;;;;;4970844;28;20057;-70
2022/10/17 12:33:21;;;;;;;7.88;5.05;;;22.80;99.90;;;;;;5059724;28;20402;-69
2022/10/17 12:36:10;;;;;;;7.65;5.15;;;22.80;99.90;;;;;;5084203;28;20040;-70
2022/10/17 12:38:38;;;;;;;8.93;5.75;;;22.70;99.90;;;;;;5085510;28;20048;-69
2022/10/17 12:41:06;;;;;;;9.48;5.55;;;22.70;99.90;;;;;;5067229;28;20119;-72
2022/10/17 12:43:51;;;;;;;9.15;6.38;;;22.60;99.90;;;;;;5066871;28;20186;-70
2022/10/17 12:46:50;;;;;;;12.07;6.95;;;22.60;99.90;;;;;;5083769;28;20043;-72
2022/10/17 12:49:46;;;;;;;10.93;7.22;;;22.60;99.90;;;;;;5083290;28;20109;-70
2022/10/17 12:52:20;;;;;;;13.73;6.15;;;22.50;99.90;;;;;;5085188;28;20051;-73
2022/10/17 12:55:11;;;;;;;11.30;7.25;;;22.50;99.90;;;;;;5067909;28;20097;-69
2022/10/17 12:58:00;;;;;;;10.95;7.15;;;22.50;99.90;;;;;;5084051;28;20044;-73
2022/10/17 13:00:58;;;;;;;10.63;6.88;;;22.50;99.90;;;;;;5087819;28;20040;-69
2022/10/17 13:03:48;;;;;;;11.18;7.03;;;22.40;99.90;;;;;;5067703;28;20048;-69
2022/10/17 13:06:25;;;;;;;10.57;7.28;;;22.40;99.90;;;;;;5087515;28;20668;-75
2022/10/17 13:09:00;;;;;;;12.30;8.95;;;22.30;99.90;;;;;;5070916;28;20442;-70
2022/10/17 13:11:33;;;;;;;11.85;7.53;;;22.30;99.90;;;;;;5070118;28;20165;-68